createdAt,value
2018-08-23T00:01:37.141Z,5.67
2018-08-23T00:04:08.226Z,4.80
2018-08-23T09:07:03.898Z,5.55
2018-08-23T09:09:35.834Z,5.67
2018-08-23T09:12:07.330Z,5.30
2018-08-23T09:14:37.173Z,6.03
2018-08-23T09:17:22.295Z,5.50
2018-08-23T09:19:58.016Z,5.73
2018-08-23T09:22:27.498Z,5.67
2018-08-23T09:24:56.969Z,4.97
2018-08-23T09:27:26.264Z,5.30
2018-08-23T09:29:55.648Z,5.47
2018-08-23T09:32:27.987Z,5.30
2018-08-23T09:34:58.577Z,5.55
2018-08-23T09:37:28.750Z,5.10
2018-08-23T09:39:58.145Z,5.03
2018-08-23T09:42:31.475Z,5.15
2018-08-23T09:45:07.844Z,5.62
2018-08-23T09:47:37.138Z,5.17
2018-08-23T09:50:06.926Z,4.67
2018-08-23T09:52:40.986Z,5.92
2018-08-23T09:55:11.529Z,5.35
2018-08-23T09:57:40.584Z,5.17
2018-08-23T10:00:14.276Z,5.70
2018-08-23T10:02:48.360Z,5.72
2018-08-23T10:05:22.774Z,4.83
2018-08-23T10:07:57.163Z,5.62
2018-08-23T10:10:31.292Z,4.95
2018-08-23T10:13:05.425Z,11.20
2018-08-23T10:15:39.833Z,6.80
2018-08-23T10:18:13.881Z,5.65
2018-08-23T10:20:48.079Z,5.28
2018-08-23T10:23:22.377Z,5.55
2018-08-23T10:25:52.615Z,4.80
2018-08-23T10:28:23.640Z,5.50
2018-08-23T10:30:52.863Z,5.20
2018-08-23T10:33:21.996Z,5.20
2018-08-23T10:35:54.702Z,5.08
2018-08-23T10:38:26.167Z,4.90
2018-08-23T10:40:59.393Z,4.97
2018-08-23T10:43:33.267Z,5.17
2018-08-23T10:46:03.470Z,5.50
2018-08-23T10:48:32.896Z,5.00
2018-08-23T10:51:02.346Z,4.75
2018-08-23T10:53:31.717Z,5.37
2018-08-23T10:56:01.094Z,6.00
2018-08-23T10:58:30.371Z,5.05
2018-08-23T11:00:59.981Z,5.00
2018-08-23T11:03:29.215Z,5.05
2018-08-23T11:05:58.473Z,5.60
2018-08-23T11:08:30.751Z,5.28
2018-08-23T11:11:05.082Z,4.65
2018-08-23T11:13:39.302Z,5.72
2018-08-23T11:16:13.472Z,5.20
2018-08-23T11:18:48.123Z,5.55
2018-08-23T11:21:18.078Z,5.70
2018-08-23T11:23:47.659Z,5.30
2018-08-23T11:26:21.832Z,5.05
2018-08-23T11:28:51.247Z,5.78
2018-08-23T11:31:25.593Z,4.65
2018-08-23T11:33:55.003Z,5.25
2018-08-23T11:36:24.301Z,5.37
2018-08-23T11:38:53.610Z,5.75
2018-08-23T11:41:22.959Z,5.70
2018-08-23T11:43:52.464Z,5.33
2018-08-23T11:46:22.656Z,5.20
2018-08-23T11:48:52.096Z,5.50
2018-08-23T11:51:21.640Z,5.87
2018-08-23T11:53:51.019Z,4.92
2018-08-23T11:56:20.345Z,5.37
2018-08-23T11:58:49.691Z,5.40
2018-08-23T12:01:18.891Z,5.08
2018-08-23T12:03:48.083Z,5.22
2018-08-23T12:06:18.017Z,4.80
2018-08-23T12:08:46.919Z,5.05
2018-08-23T12:11:15.900Z,5.22
2018-08-23T12:13:49.820Z,5.10
2018-08-23T12:16:19.360Z,5.42
2018-08-23T12:18:48.582Z,4.87
2018-08-23T12:21:18.040Z,5.55
2018-08-23T12:23:47.085Z,5.05
2018-08-23T12:26:16.180Z,5.12
2018-08-23T12:28:50.380Z,5.15
2018-08-23T12:31:19.688Z,4.97
2018-08-23T12:33:48.897Z,5.05
2018-08-23T12:36:23.106Z,5.50
2018-08-23T12:38:57.360Z,5.50
2018-08-23T12:41:31.241Z,5.60
2018-08-23T12:44:00.696Z,4.87
2018-08-23T12:46:30.151Z,4.75
2018-08-23T12:48:59.647Z,4.62
2018-08-23T12:51:28.624Z,4.53
2018-08-23T12:53:57.960Z,4.85
2018-08-23T12:56:27.431Z,4.95
2018-08-23T12:58:56.430Z,5.20
2018-08-23T13:01:25.443Z,4.97
2018-08-23T13:03:54.942Z,4.90
2018-08-23T13:06:24.045Z,4.95
2018-08-23T13:08:53.198Z,5.28
2018-08-23T13:11:22.561Z,4.83
2018-08-23T13:13:51.780Z,5.08
2018-08-23T13:16:21.055Z,5.00
2018-08-23T13:18:50.303Z,5.12
2018-08-23T13:21:19.171Z,5.17
2018-08-23T13:23:48.388Z,4.72
2018-08-23T13:26:17.744Z,4.90
2018-08-23T13:28:46.652Z,5.60
2018-08-23T13:31:15.930Z,10.23
2018-08-23T13:33:45.199Z,5.55
2018-08-23T13:36:14.533Z,5.45
2018-08-23T13:38:43.959Z,5.62
2018-08-23T13:41:13.329Z,5.60
2018-08-23T13:43:42.484Z,5.47
2018-08-23T13:46:11.918Z,5.83
2018-08-23T13:48:41.398Z,5.78
2018-08-23T13:51:10.439Z,5.30
2018-08-23T13:53:39.412Z,5.53
2018-08-23T13:56:08.780Z,5.70
2018-08-23T13:58:37.754Z,5.17
2018-08-23T14:01:07.118Z,5.50
2018-08-23T14:03:36.381Z,5.83
2018-08-23T14:06:05.403Z,5.87
2018-08-23T14:08:34.364Z,5.70
2018-08-23T14:11:03.700Z,5.33
2018-08-23T14:13:33.041Z,5.93
2018-08-23T14:16:04.397Z,5.80
2018-08-23T14:18:34.945Z,5.67
2018-08-23T14:21:04.478Z,5.70
2018-08-23T14:23:33.825Z,5.50
2018-08-23T14:26:03.273Z,5.60
2018-08-23T14:28:32.676Z,6.03
2018-08-23T14:31:01.853Z,5.67
2018-08-23T14:33:31.480Z,6.33
2018-08-23T14:36:01.252Z,6.30
2018-08-23T14:38:30.982Z,6.17
2018-08-23T14:41:00.324Z,6.07
2018-08-23T14:43:29.635Z,5.50
2018-08-23T14:46:03.743Z,5.73
2018-08-23T14:48:32.899Z,5.50
2018-08-23T14:51:02.203Z,6.10
2018-08-23T14:53:31.690Z,5.60
2018-08-23T14:56:05.829Z,5.70
2018-08-23T14:58:35.038Z,5.80
2018-08-23T15:01:04.129Z,6.27
2018-08-23T15:03:33.118Z,5.57
2018-08-23T15:06:02.503Z,5.97
2018-08-23T15:08:47.640Z,5.87
2018-08-23T15:11:16.979Z,6.03
2018-08-23T15:13:46.274Z,5.80
2018-08-23T15:16:15.676Z,5.83
2018-08-23T15:18:45.212Z,6.00
2018-08-23T15:21:14.590Z,5.50
2018-08-23T15:23:43.764Z,5.57
2018-08-23T15:26:12.998Z,5.60
2018-08-23T15:28:42.062Z,6.17
2018-08-23T15:31:11.323Z,5.70
2018-08-23T15:33:40.324Z,5.93
2018-08-23T15:36:09.752Z,5.20
2018-08-23T15:38:40.470Z,5.57
2018-08-23T15:41:10.688Z,5.77
2018-08-23T15:43:39.889Z,5.50
2018-08-23T15:46:08.899Z,5.67
2018-08-23T15:48:38.139Z,5.17
2018-08-23T15:51:07.593Z,5.63
2018-08-23T15:53:36.947Z,6.67
2018-08-23T15:56:06.550Z,6.10
2018-08-23T15:58:36.532Z,6.63
2018-08-23T16:01:05.960Z,6.40
2018-08-23T16:03:35.414Z,6.73
2018-08-23T16:06:04.564Z,6.47
2018-08-23T16:08:37.936Z,6.33
2018-08-23T16:11:08.151Z,5.97
2018-08-23T16:13:37.479Z,5.97
2018-08-23T16:16:11.749Z,6.03
2018-08-23T16:18:46.039Z,6.60
2018-08-23T16:21:15.052Z,6.80
2018-08-23T16:23:44.356Z,6.60
2018-08-23T16:26:13.420Z,6.10
2018-08-23T16:28:42.603Z,5.90
2018-08-23T16:31:11.558Z,6.60
2018-08-23T16:33:40.843Z,10.33
2018-08-23T16:36:10.042Z,6.20
2018-08-23T16:38:39.448Z,6.57
2018-08-23T16:41:08.394Z,6.60
2018-08-23T16:43:37.380Z,6.20
2018-08-23T16:46:06.323Z,5.60
2018-08-23T16:48:35.760Z,6.30
2018-08-23T16:51:04.956Z,6.60
2018-08-23T16:53:34.200Z,5.90
2018-08-23T16:56:03.463Z,6.30
2018-08-23T16:58:32.760Z,5.40
2018-08-23T17:01:01.641Z,6.07
2018-08-23T17:03:30.985Z,5.10
2018-08-23T17:06:00.290Z,5.27
2018-08-23T17:08:29.332Z,5.83
2018-08-23T17:10:58.537Z,5.67
2018-08-23T17:13:32.744Z,5.47
2018-08-23T17:16:06.884Z,5.27
2018-08-23T17:18:36.099Z,5.20
2018-08-23T17:21:05.424Z,4.80
2018-08-23T17:23:34.761Z,4.57
2018-08-23T17:26:04.172Z,5.13
2018-08-23T17:28:33.552Z,4.77
2018-08-23T17:31:03.188Z,4.47
2018-08-23T17:33:32.620Z,4.93
2018-08-23T17:36:01.743Z,4.50
2018-08-23T17:38:31.566Z,4.90
2018-08-23T17:41:00.972Z,5.33
2018-08-23T17:43:30.407Z,5.30
2018-08-23T17:45:59.423Z,5.20
2018-08-23T17:48:29.102Z,4.70
2018-08-23T17:50:58.379Z,4.90
2018-08-23T17:53:27.586Z,5.00
2018-08-23T17:55:56.752Z,4.77
2018-08-23T17:58:25.928Z,4.70
2018-08-23T18:00:55.214Z,3.97
2018-08-23T18:03:24.548Z,4.50
2018-08-23T18:05:53.793Z,4.57
2018-08-23T18:08:23.091Z,4.53
2018-08-23T18:10:52.411Z,4.37
2018-08-23T18:13:21.752Z,4.23
2018-08-23T18:15:56.152Z,4.40
2018-08-23T18:18:25.466Z,4.60
2018-08-23T18:20:54.684Z,4.70
2018-08-23T18:23:23.872Z,3.87
2018-08-23T18:25:53.180Z,4.00
2018-08-23T18:28:22.759Z,4.00
2018-08-23T18:30:52.019Z,4.50
2018-08-23T18:33:21.272Z,4.73
2018-08-23T18:35:50.673Z,4.63
2018-08-23T18:38:19.711Z,4.70
2018-08-23T18:40:48.947Z,3.80
2018-08-23T18:43:18.291Z,4.47
2018-08-23T18:45:47.756Z,4.33
2018-08-23T18:48:17.006Z,4.47
2018-08-23T18:50:46.409Z,4.67
2018-08-23T18:53:15.408Z,4.37
2018-08-23T18:55:44.489Z,4.33
2018-08-23T18:58:13.999Z,4.40
2018-08-23T19:00:43.418Z,4.10
2018-08-23T19:03:12.600Z,4.30
2018-08-23T19:05:41.797Z,4.10
2018-08-23T19:08:11.068Z,4.33
2018-08-23T19:10:39.946Z,4.53
2018-08-23T19:13:09.017Z,4.10
2018-08-23T19:15:43.187Z,4.37
2018-08-23T19:18:13.510Z,4.27
2018-08-23T19:20:42.446Z,4.07
2018-08-23T19:23:11.741Z,4.37
2018-08-23T19:25:41.043Z,4.13
2018-08-23T19:28:10.208Z,4.23
2018-08-23T19:30:40.132Z,4.13
2018-08-23T19:33:09.400Z,4.40
2018-08-23T19:35:38.761Z,3.70
2018-08-23T19:38:08.295Z,4.00
2018-08-23T19:40:37.660Z,4.10
2018-08-23T19:43:07.016Z,4.10
2018-08-23T19:45:41.547Z,4.43
2018-08-23T19:48:10.895Z,4.30
2018-08-23T19:50:40.220Z,4.50
2018-08-23T19:53:09.480Z,4.27
2018-08-23T19:55:38.831Z,4.50
2018-08-23T19:58:08.137Z,4.33
2018-08-23T20:00:37.468Z,4.53
2018-08-23T20:03:06.816Z,4.23
2018-08-23T20:05:35.736Z,4.43
2018-08-23T20:08:05.080Z,4.40
2018-08-23T20:10:34.468Z,4.13
2018-08-23T20:13:03.778Z,4.63
2018-08-23T20:15:32.780Z,4.83
2018-08-23T20:18:01.893Z,4.60
2018-08-23T20:20:31.191Z,4.57
2018-08-23T20:23:00.370Z,4.63
2018-08-23T20:25:29.477Z,4.57
2018-08-23T20:27:58.760Z,4.60
2018-08-23T20:30:27.904Z,4.73
2018-08-23T20:32:56.848Z,4.80
2018-08-23T20:35:26.133Z,4.70
2018-08-23T20:37:55.586Z,4.80
2018-08-23T20:40:24.883Z,4.80
2018-08-23T20:42:54.128Z,4.67
2018-08-23T20:45:23.553Z,4.90
2018-08-23T20:47:52.505Z,4.67
2018-08-23T20:50:21.584Z,4.87
2018-08-23T20:52:51.053Z,4.83
2018-08-23T20:55:20.317Z,4.90
2018-08-23T20:57:49.420Z,5.07
2018-08-23T21:00:18.703Z,4.50
2018-08-23T21:02:47.914Z,4.97
2018-08-23T21:05:17.218Z,4.13
2018-08-23T21:07:46.496Z,4.40
2018-08-23T21:10:15.488Z,4.43
2018-08-23T21:12:44.755Z,4.07
2018-08-23T21:15:13.792Z,4.17
2018-08-23T21:17:42.986Z,4.17
2018-08-23T21:20:11.869Z,4.30
2018-08-23T21:22:41.214Z,4.33
2018-08-23T21:25:10.531Z,4.03
2018-08-23T21:27:39.918Z,3.80
2018-08-23T21:30:08.923Z,4.23
2018-08-23T21:32:38.020Z,4.30
2018-08-23T21:35:07.014Z,3.90
2018-08-23T21:37:36.449Z,4.23
2018-08-23T21:40:05.580Z,4.10
2018-08-23T21:42:34.802Z,4.30
2018-08-23T21:45:03.740Z,4.60
2018-08-23T21:47:33.136Z,4.53
2018-08-23T21:50:02.486Z,4.00
2018-08-23T21:52:31.930Z,4.23
2018-08-23T21:55:01.213Z,4.30
2018-08-23T21:57:30.499Z,4.27
2018-08-23T21:59:59.760Z,3.90
2018-08-23T22:02:28.672Z,4.10
2018-08-23T22:04:58.288Z,4.27
2018-08-23T22:07:27.475Z,4.10
2018-08-23T22:09:56.492Z,4.37
2018-08-23T22:12:26.507Z,4.67
2018-08-23T22:14:56.207Z,4.33
2018-08-23T22:17:25.585Z,4.00
2018-08-23T22:19:54.690Z,4.00
2018-08-23T22:22:24.095Z,4.47
2018-08-23T22:24:53.068Z,4.40
2018-08-23T22:27:22.121Z,4.37
2018-08-23T22:29:51.431Z,3.70
2018-08-23T22:32:20.485Z,3.90
2018-08-23T22:34:49.570Z,3.73
2018-08-23T22:37:18.808Z,3.87
2018-08-23T22:39:47.926Z,3.97
2018-08-23T22:42:17.141Z,4.60
2018-08-23T22:44:46.159Z,4.13
2018-08-23T22:47:15.284Z,4.30
2018-08-23T22:49:44.678Z,4.37
2018-08-23T22:52:14.139Z,4.30
2018-08-23T22:54:43.408Z,4.57
2018-08-23T22:57:12.939Z,4.70
2018-08-23T22:59:42.362Z,4.73
2018-08-23T23:02:15.878Z,4.50
2018-08-23T23:04:45.137Z,4.40
2018-08-23T23:07:14.245Z,4.63
2018-08-23T23:09:43.574Z,4.33
2018-08-23T23:12:12.727Z,4.60
2018-08-23T23:14:41.891Z,4.83
2018-08-23T23:17:11.633Z,4.40
2018-08-23T23:19:40.879Z,4.30
2018-08-23T23:22:10.100Z,4.30
2018-08-23T23:24:44.547Z,4.07
2018-08-23T23:27:13.700Z,4.47
2018-08-23T23:29:42.937Z,4.67
2018-08-23T23:32:11.810Z,4.77
2018-08-23T23:34:41.155Z,5.33
2018-08-23T23:37:10.229Z,5.33
2018-08-23T23:39:39.333Z,5.40
2018-08-23T23:42:08.375Z,4.87
2018-08-23T23:44:37.798Z,4.67
2018-08-23T23:47:07.064Z,4.17
2018-08-23T23:49:36.349Z,3.90
2018-08-23T23:52:05.639Z,4.60
2018-08-23T23:54:34.955Z,4.30
2018-08-23T23:57:03.911Z,5.20
2018-08-23T23:59:33.012Z,4.90
